Time;durP1;ratioP1;P1;durP2;ratioP2;P2;SDS_P1;SDS_P2;PMS_P1;PMS_P2;Temp;Humidity;BMP_temperature;BMP_pressure;BME280_temperature;BME280_humidity;BME280_pressure;Samples;Min_cycle;Max_cycle;Signal;HPM_P1;HPM_P2
2022/09/03 00:00:04;;;;;;;1.70;1.60;;;;;;;15.44;75.33;97754.34;5109399;28;20222;-73
2022/09/03 00:02:38;;;;;;;1.60;1.47;;;;;;;15.53;74.81;97758.78;5111743;28;20222;-73
2022/09/03 00:05:10;;;;;;;2.23;1.50;;;;;;;15.60;73.97;97756.38;5101190;28;20219;-74
2022/09/03 00:07:46;;;;;;;1.87;1.70;;;;;;;15.68;73.70;97756.47;5107904;28;20489;-74
2022/09/03 00:10:20;;;;;;;1.97;1.50;;;;;;;15.71;73.35;97751.69;5111587;28;20344;-73
2022/09/03 00:12:50;;;;;;;1.63;1.50;;;;;;;15.78;73.26;97751.97;5108481;28;20294;-73
2022/09/03 00:15:20;;;;;;;1.97;1.53;;;;;;;15.86;72.76;97749.38;5107913;28;20720;-74
2022/09/03 00:17:54;;;;;;;2.00;1.80;;;;;;;15.89;72.53;97739.25;5110577;28;20225;-73
2022/09/03 00:20:28;;;;;;;1.83;1.70;;;;;;;15.92;72.46;97739.00;5109660;28;20230;-74
2022/09/03 00:22:57;;;;;;;1.60;1.50;;;;;;;15.96;72.38;97747.53;5107736;28;20307;-73
2022/09/03 00:25:29;;;;;;;2.07;1.87;;;;;;;15.96;72.41;97736.84;5110275;28;20222;-73
2022/09/03 00:27:58;;;;;;;1.70;1.60;;;;;;;16.00;72.34;97741.72;5111441;28;20308;-75
2022/09/03 00:30:26;;;;;;;1.80;1.60;;;;;;;16.02;71.92;97743.28;5108881;28;20257;-74
2022/09/03 00:32:59;;;;;;;2.93;1.80;;;;;;;16.05;71.67;97750.13;5105655;28;20695;-74
2022/09/03 00:35:30;;;;;;;1.60;1.50;;;;;;;16.10;71.38;97754.00;5093636;28;20639;-74
2022/09/03 00:37:57;;;;;;;1.70;1.53;;;;;;;16.10;71.12;97746.00;5111087;28;20630;-74
2022/09/03 00:40:39;;;;;;;1.43;1.33;;;;;;;16.13;71.46;97752.06;5107147;28;20227;-74
2022/09/03 00:43:17;;;;;;;1.73;1.30;;;;;;;16.16;71.24;97752.59;5109971;28;20226;-74
2022/09/03 00:45:53;;;;;;;1.83;1.40;;;;;;;16.19;71.05;97753.13;5110981;28;20257;-73
2022/09/03 00:48:26;;;;;;;1.50;1.40;;;;;;;16.24;71.01;97750.88;5100497;28;20688;-74
2022/09/03 00:51:10;;;;;;;1.60;1.50;;;;;;;16.26;70.61;97743.53;5109072;28;20371;-73
2022/09/03 00:53:46;;;;;;;1.43;1.33;;;;;;;16.29;70.58;97745.06;5110815;28;20598;-74
2022/09/03 00:56:21;;;;;;;1.60;1.50;;;;;;;16.30;71.42;97744.94;5100418;28;20284;-74
2022/09/03 00:59:03;;;;;;;2.10;1.57;;;;;;;16.28;72.25;97744.22;5108464;28;20572;-73
2022/09/03 01:01:46;;;;;;;1.57;1.47;;;;;;;16.28;72.90;97746.06;5110501;28;20344;-75
2022/09/03 01:04:28;;;;;;;1.60;1.50;;;;;;;16.27;73.31;97750.56;5101136;28;20260;-74
2022/09/03 01:07:05;;;;;;;1.70;1.60;;;;;;;16.28;73.29;97746.88;5093272;28;20265;-72
2022/09/03 01:09:42;;;;;;;1.93;1.60;;;;;;;16.28;73.62;97746.88;5109752;28;20230;-72
2022/09/03 01:12:16;;;;;;;2.10;1.70;;;;;;;16.27;74.06;97747.88;5106710;28;20231;-72
2022/09/03 01:14:54;;;;;;;1.70;1.37;;;;;;;16.29;73.61;97748.59;5097381;28;20288;-72
2022/09/03 01:17:36;;;;;;;1.40;1.30;;;;;;;16.31;73.42;97749.28;5106538;28;20312;-72
2022/09/03 01:20:21;;;;;;;2.27;1.50;;;;;;;16.32;73.07;97748.28;5106592;28;20222;-72
2022/09/03 01:23:27;;;;;;;1.50;1.40;;;;;;;16.33;73.22;97755.28;5102906;28;20230;-72
2022/09/03 01:26:00;;;;;;;1.40;1.30;;;;;;;16.36;73.53;97746.13;5099516;28;20261;-72
2022/09/03 01:28:44;;;;;;;1.60;1.50;;;;;;;16.37;73.58;97745.16;5109931;28;20218;-72
2022/09/03 01:31:25;;;;;;;1.80;1.40;;;;;;;16.39;73.73;97746.72;5109136;28;20222;-72
2022/09/03 01:34:04;;;;;;;1.40;1.30;;;;;;;16.39;73.65;97738.72;5106232;28;20378;-72
2022/09/03 01:36:38;;;;;;;1.70;1.60;;;;;;;16.39;74.07;97746.72;5094561;28;20241;-72
2022/09/03 01:39:08;;;;;;;1.60;1.50;;;;;;;16.38;74.39;97739.69;5109148;28;20226;-72
2022/09/03 01:44:43;;;;;;;1.50;1.40;;;;;;;16.39;75.89;97744.03;5097157;28;20212;-72
2022/09/03 01:47:22;;;;;;;1.47;1.37;;;;;;;16.37;76.39;97746.00;5107189;28;20313;-72
2022/09/03 01:49:56;;;;;;;1.57;1.33;;;;;;;16.34;76.83;97748.94;5107357;28;20234;-72
2022/09/03 01:52:37;;;;;;;2.80;1.67;;;;;;;16.26;77.27;97762.22;5108156;28;20267;-74
2022/09/03 01:55:14;;;;;;;1.63;1.53;;;;;;;16.25;76.92;97757.88;5106658;28;20226;-72
2022/09/03 01:57:49;;;;;;;1.57;1.47;;;;;;;16.27;76.31;97755.88;5107347;28;20265;-73
2022/09/03 02:00:19;;;;;;;1.60;1.50;;;;;;;16.29;76.47;97761.94;5109704;28;20225;-72
2022/09/03 02:02:47;;;;;;;1.50;1.40;;;;;;;16.36;75.36;97759.47;5108035;28;20265;-75
2022/09/03 02:05:17;;;;;;;1.70;1.60;;;;;;;16.40;75.07;97756.38;5106042;28;20219;-72
2022/09/03 02:07:45;;;;;;;2.60;1.60;;;;;;;16.44;75.13;97751.59;5108985;28;20646;-74
2022/09/03 02:10:15;;;;;;;2.60;1.40;;;;;;;16.47;75.26;97751.28;5109738;28;20229;-74
2022/09/03 02:12:46;;;;;;;1.73;1.47;;;;;;;16.48;75.19;97748.50;5107287;28;20295;-73
2022/09/03 02:15:16;;;;;;;1.50;1.40;;;;;;;16.48;75.83;97748.50;5105785;28;20678;-73
2022/09/03 02:17:47;;;;;;;1.60;1.50;;;;;;;16.50;75.95;97751.84;5092267;28;20226;-73
2022/09/03 02:20:19;;;;;;;1.70;1.60;;;;;;;16.50;76.12;97751.84;5107045;28;20222;-73
2022/09/03 02:22:47;;;;;;;1.40;1.30;;;;;;;16.51;76.42;97748.16;5099227;28;20309;-74
2022/09/03 02:25:15;;;;;;;1.83;1.67;;;;;;;16.55;76.22;97765.56;5107204;28;20257;-74
2022/09/03 02:27:42;;;;;;;1.50;1.40;;;;;;;16.56;75.95;97772.56;5109611;28;20747;-74
2022/09/03 02:30:10;;;;;;;1.90;1.63;;;;;;;16.58;76.04;97765.25;5109030;28;20254;-75
2022/09/03 02:32:37;;;;;;;1.60;1.50;;;;;;;16.57;76.44;97763.56;5105766;28;20307;-73
2022/09/03 02:35:06;;;;;;;1.50;1.40;;;;;;;16.59;76.73;97774.91;5107168;28;20230;-74
2022/09/03 02:37:33;;;;;;;1.40;1.30;;;;;;;16.62;76.45;97768.44;5109595;28;20279;-74
2022/09/03 02:40:00;;;;;;;1.67;1.57;;;;;;;16.62;75.77;97763.97;5108763;28;20268;-74
2022/09/03 02:42:27;;;;;;;1.50;1.40;;;;;;;16.60;75.53;97755.28;5108415;28;20272;-74
2022/09/03 02:45:00;;;;;;;1.83;1.63;;;;;;;16.57;75.22;97755.56;5109084;28;20226;-74
2022/09/03 02:47:33;;;;;;;2.10;1.70;;;;;;;16.52;74.82;97752.50;5113471;28;20222;-74
2022/09/03 02:49:59;;;;;;;1.67;1.57;;;;;;;16.44;74.97;97757.78;5111155;28;20267;-74
2022/09/03 02:52:27;;;;;;;1.57;1.30;;;;;;;16.31;75.73;97756.41;5109247;28;20308;-72
2022/09/03 02:54:54;;;;;;;2.10;1.53;;;;;;;16.20;76.73;97756.63;5112211;28;20221;-73
2022/09/03 02:57:21;;;;;;;2.03;1.60;;;;;;;16.13;77.43;97752.06;5113157;28;20241;-73
2022/09/03 02:59:47;;;;;;;1.57;1.40;;;;;;;16.04;78.55;97743.13;5111167;28;20226;-73
2022/09/03 03:02:14;;;;;;;2.17;1.50;;;;;;;15.98;79.08;97747.22;5109028;28;20571;-73
2022/09/03 03:04:41;;;;;;;1.83;1.63;;;;;;;16.00;78.63;97752.41;5111501;28;20617;-73
2022/09/03 03:07:08;;;;;;;1.57;1.47;;;;;;;16.03;77.85;97752.13;5112907;28;20233;-73
2022/09/03 03:09:36;;;;;;;1.80;1.50;;;;;;;16.00;78.51;97756.91;5111440;28;20226;-72
2022/09/03 03:12:03;;;;;;;2.00;1.67;;;;;;;15.97;79.27;97746.53;5107288;28;20223;-73
2022/09/03 03:14:30;;;;;;;1.47;1.37;;;;;;;15.98;79.28;97753.53;5111334;28;20287;-73
2022/09/03 03:16:56;;;;;;;1.80;1.70;;;;;;;15.95;79.38;97754.66;5112462;28;20296;-72
2022/09/03 03:19:23;;;;;;;2.47;1.90;;;;;;;15.94;79.12;97763.66;5111318;28;20611;-72
2022/09/03 03:21:50;;;;;;;1.67;1.57;;;;;;;15.93;78.36;97761.13;5099518;28;20306;-72
2022/09/03 03:24:16;;;;;;;1.70;1.60;;;;;;;15.95;77.40;97760.00;5110515;28;20268;-73
2022/09/03 03:26:44;;;;;;;1.60;1.50;;;;;;;15.96;76.48;97760.84;5112579;28;20257;-72
2022/09/03 03:29:16;;;;;;;1.67;1.57;;;;;;;16.01;76.04;97753.25;5111523;28;20229;-73
2022/09/03 03:31:43;;;;;;;1.67;1.57;;;;;;;16.01;75.71;97764.72;5108495;28;20581;-73
2022/09/03 03:34:10;;;;;;;2.83;1.70;;;;;;;15.99;76.41;97769.38;5110763;28;20295;-73
2022/09/03 03:36:36;;;;;;;1.50;1.40;;;;;;;15.95;76.99;97764.50;5112230;28;20249;-73
2022/09/03 03:39:03;;;;;;;1.83;1.50;;;;;;;15.93;76.73;97761.13;5109320;28;20608;-73
2022/09/03 03:41:32;;;;;;;1.33;1.23;;;;;;;15.93;76.88;97763.78;5108297;28;20258;-73
2022/09/03 03:44:02;;;;;;;1.57;1.30;;;;;;;15.93;77.05;97769.13;5110449;28;20279;-72
2022/09/03 03:46:31;;;;;;;1.80;1.70;;;;;;;16.01;76.42;97763.91;5111993;28;20271;-73
2022/09/03 03:48:58;;;;;;;1.83;1.40;;;;;;;16.04;75.92;97765.28;5110400;28;20222;-73
2022/09/03 03:51:25;;;;;;;1.57;1.47;;;;;;;16.10;75.54;97763.84;5099759;28;20255;-73
2022/09/03 03:53:54;;;;;;;1.50;1.40;;;;;;;16.13;75.60;97764.41;5110503;28;20249;-72
2022/09/03 03:56:21;;;;;;;1.67;1.57;;;;;;;16.17;75.54;97770.28;5111842;28;20605;-73
2022/09/03 03:58:48;;;;;;;1.70;1.60;;;;;;;16.20;75.57;97769.97;5110039;28;20271;-72
2022/09/03 04:01:18;;;;;;;1.40;1.30;;;;;;;16.22;75.57;97774.16;5108019;28;20252;-73
2022/09/03 04:03:46;;;;;;;1.60;1.50;;;;;;;16.24;75.68;97777.53;5109379;28;20226;-73
2022/09/03 04:06:14;;;;;;;1.70;1.60;;;;;;;16.24;75.81;97771.34;5111730;28;20516;-72
2022/09/03 04:08:43;;;;;;;2.87;1.80;;;;;;;16.23;75.97;97785.66;5109481;28;20279;-73
2022/09/03 04:11:12;;;;;;;1.40;1.30;;;;;;;16.24;75.84;97777.53;5107822;28;20229;-72
2022/09/03 04:13:44;;;;;;;2.00;1.80;;;;;;;16.25;75.67;97776.53;5111350;28;20230;-73
2022/09/03 04:16:12;;;;;;;1.70;1.60;;;;;;;16.22;76.28;97766.16;5111269;28;20291;-72
2022/09/03 04:18:41;;;;;;;1.70;1.60;;;;;;;16.20;76.95;97769.97;5108041;28;20574;-73
2022/09/03 04:21:09;;;;;;;1.70;1.60;;;;;;;16.15;77.55;97761.59;5107030;28;20223;-73
2022/09/03 04:23:38;;;;;;;1.50;1.40;;;;;;;16.09;78.27;97768.34;5111286;28;20226;-73
2022/09/03 04:26:06;;;;;;;1.83;1.73;;;;;;;16.07;78.79;97773.97;5111286;28;20218;-72
2022/09/03 04:28:34;;;;;;;1.90;1.50;;;;;;;16.08;78.36;97771.16;5105410;28;20227;-72
2022/09/03 04:31:02;;;;;;;2.30;1.90;;;;;;;16.10;77.99;97767.34;5106367;28;20264;-72
2022/09/03 04:33:27;;;;;;;2.97;1.80;;;;;;;16.15;77.91;97764.25;5111104;28;20313;-72
2022/09/03 04:36:02;;;;;;;1.80;1.70;;;;;;;16.15;78.11;97767.75;5110974;28;20330;-73
2022/09/03 04:38:31;;;;;;;1.70;1.60;;;;;;;16.15;78.37;97775.75;5100958;28;20308;-73
2022/09/03 04:40:59;;;;;;;1.80;1.70;;;;;;;16.18;78.39;97778.13;5108780;28;20227;-74
2022/09/03 04:43:25;;;;;;;1.50;1.40;;;;;;;16.20;78.66;97781.47;5110944;28;20240;-74
2022/09/03 04:45:56;;;;;;;1.97;1.80;;;;;;;16.21;78.65;97777.81;5110258;28;20229;-73
2022/09/03 04:48:23;;;;;;;2.00;1.80;;;;;;;16.25;78.87;97778.34;5107071;28;20227;-73
2022/09/03 04:50:49;;;;;;;1.63;1.53;;;;;;;16.26;79.14;97780.88;5108897;28;20258;-73
2022/09/03 04:53:17;;;;;;;2.17;1.97;;;;;;;16.27;79.52;97776.41;5110560;28;20242;-73
2022/09/03 04:55:44;;;;;;;1.80;1.70;;;;;;;16.28;79.81;97773.56;5108550;28;20269;-73
2022/09/03 04:58:11;;;;;;;2.50;1.83;;;;;;;16.27;80.16;97771.88;5106447;28;20246;-73
2022/09/03 05:00:38;;;;;;;2.00;1.80;;;;;;;16.24;80.19;97766.88;5108462;28;20698;-73
2022/09/03 05:03:05;;;;;;;2.63;1.73;;;;;;;16.22;80.03;97776.81;5110495;28;20232;-73
2022/09/03 05:05:33;;;;;;;2.00;1.90;;;;;;;16.20;79.67;97778.81;5102941;28;20697;-73
2022/09/03 05:08:00;;;;;;;1.70;1.60;;;;;;;16.22;79.44;97776.81;5106893;28;20413;-73
2022/09/03 05:10:28;;;;;;;2.63;1.80;;;;;;;16.26;79.17;97780.88;5108406;28;20306;-73
2022/09/03 05:13:01;;;;;;;2.10;1.60;;;;;;;16.32;79.04;97780.28;5110378;28;20571;-73
2022/09/03 05:15:28;;;;;;;2.80;1.90;;;;;;;16.41;78.83;97779.41;5108830;28;20221;-73
2022/09/03 05:17:58;;;;;;;1.97;1.77;;;;;;;16.50;78.69;97778.50;5106595;28;20591;-73
2022/09/03 05:20:26;;;;;;;1.93;1.83;;;;;;;16.58;78.34;97786.59;5107157;28;20258;-73
2022/09/03 05:22:53;;;;;;;1.93;1.73;;;;;;;16.64;78.35;97780.66;5102426;28;20308;-73
2022/09/03 05:25:20;;;;;;;1.83;1.70;;;;;;;16.64;78.48;97775.31;5108620;28;20592;-73
2022/09/03 05:27:48;;;;;;;2.00;1.80;;;;;;;16.50;79.71;97772.31;5106453;28;20298;-73
2022/09/03 05:30:15;;;;;;;2.60;1.90;;;;;;;16.29;81.90;97785.94;5109125;28;20223;-73
2022/09/03 05:32:42;;;;;;;2.20;2.00;;;;;;;16.12;84.37;97787.72;5110050;28;20261;-73
2022/09/03 05:35:09;;;;;;;2.00;1.90;;;;;;;15.94;85.61;97784.16;5108507;28;20270;-73
2022/09/03 05:37:36;;;;;;;2.43;2.23;;;;;;;15.83;86.99;97782.50;5106146;28;20292;-73
2022/09/03 05:40:04;;;;;;;2.50;2.00;;;;;;;15.85;88.40;97788.53;5108784;28;20590;-73
2022/09/03 05:42:37;;;;;;;2.30;2.10;;;;;;;15.90;89.28;97785.44;5109954;28;20222;-73
2022/09/03 05:45:09;;;;;;;2.47;2.20;;;;;;;15.98;88.78;97782.84;5107670;28;20221;-73
2022/09/03 05:47:38;;;;;;;2.03;1.93;;;;;;;16.02;89.00;97783.25;5106173;28;20262;-73
2022/09/03 05:50:06;;;;;;;2.80;2.40;;;;;;;16.04;89.31;97791.94;5090251;28;20222;-73
2022/09/03 05:52:33;;;;;;;2.20;2.00;;;;;;;16.03;89.71;97795.59;5109990;28;20353;-73
2022/09/03 05:54:59;;;;;;;2.20;2.00;;;;;;;16.08;90.06;97793.31;5106692;28;20225;-73
2022/09/03 05:57:26;;;;;;;3.00;2.30;;;;;;;16.19;88.71;97789.63;5106034;28;20242;-74
2022/09/03 05:59:53;;;;;;;2.50;2.10;;;;;;;16.33;87.98;97786.47;5096763;28;20226;-74
2022/09/03 06:02:21;;;;;;;2.20;2.00;;;;;;;16.40;88.04;97790.25;5104797;28;20684;-73
2022/09/03 06:04:49;;;;;;;2.43;2.13;;;;;;;16.45;87.34;97793.31;5106702;28;20280;-73
2022/09/03 06:07:16;;;;;;;2.30;2.10;;;;;;;16.54;87.27;97798.56;5095000;28;20206;-73
2022/09/03 06:09:43;;;;;;;4.60;2.30;;;;;;;16.63;87.10;97797.66;5095263;28;20226;-74
2022/09/03 06:12:10;;;;;;;2.63;2.03;;;;;;;16.81;86.43;97801.16;5103192;28;20222;-73
2022/09/03 06:14:36;;;;;;;2.13;2.00;;;;;;;16.97;85.33;97798.66;5103877;28;20226;-72
2022/09/03 06:17:03;;;;;;;2.70;2.00;;;;;;;17.09;83.78;97797.44;5106729;28;20584;-73
2022/09/03 06:19:31;;;;;;;2.33;1.87;;;;;;;17.22;83.05;97797.00;5112147;28;20226;-73
2022/09/03 06:21:58;;;;;;;2.20;2.00;;;;;;;17.34;82.09;97801.97;5107896;28;20342;-73
2022/09/03 06:24:26;;;;;;;2.27;2.07;;;;;;;17.44;80.56;97797.38;5110058;28;20226;-74
2022/09/03 06:26:53;;;;;;;2.20;2.00;;;;;;;17.53;79.38;97807.13;5108672;28;20226;-74
2022/09/03 06:29:19;;;;;;;2.17;1.97;;;;;;;17.61;79.28;97803.69;5111676;28;20256;-74
2022/09/03 06:31:47;;;;;;;1.90;1.80;;;;;;;17.67;78.76;97798.53;5112208;28;20304;-74
2022/09/03 06:34:15;;;;;;;2.50;1.90;;;;;;;17.76;79.30;97802.09;5109741;28;20218;-74
2022/09/03 06:36:43;;;;;;;3.27;2.00;;;;;;;17.83;79.36;97804.00;5108424;28;20242;-74
2022/09/03 06:39:09;;;;;;;2.70;1.90;;;;;;;17.92;79.40;97808.38;5111546;28;20230;-73
2022/09/03 06:41:36;;;;;;;2.80;1.70;;;;;;;18.01;78.87;97809.25;5110367;28;20230;-74
2022/09/03 06:44:04;;;;;;;6.33;2.20;;;;;;;18.09;77.59;97806.59;5110323;28;20253;-74
2022/09/03 06:46:33;;;;;;;2.50;1.73;;;;;;;18.14;76.38;97796.25;5108198;28;20279;-73
2022/09/03 06:49:00;;;;;;;2.37;1.83;;;;;;;18.18;76.47;97814.53;5111617;28;20314;-74
2022/09/03 06:51:28;;;;;;;1.90;1.80;;;;;;;18.24;76.03;97807.69;5111676;28;20572;-73
2022/09/03 06:54:01;;;;;;;2.20;2.00;;;;;;;18.29;76.06;97806.19;5109360;28;20230;-74
2022/09/03 06:56:28;;;;;;;2.00;1.90;;;;;;;18.36;75.76;97807.25;5107895;28;20575;-74
2022/09/03 06:58:57;;;;;;;2.23;2.00;;;;;;;18.43;75.46;97805.63;5111771;28;20229;-74
2022/09/03 07:01:26;;;;;;;2.97;2.00;;;;;;;18.50;74.63;97806.66;5111678;28;20233;-73
2022/09/03 07:03:55;;;;;;;2.00;1.80;;;;;;;18.64;73.71;97800.66;5108006;28;20223;-74
2022/09/03 07:06:24;;;;;;;1.97;1.77;;;;;;;18.74;73.09;97806.72;5108274;28;20317;-73
2022/09/03 07:08:50;;;;;;;2.10;1.90;;;;;;;18.83;72.26;97816.41;5109723;28;20632;-74
2022/09/03 07:11:22;;;;;;;2.63;1.80;;;;;;;18.95;72.28;97819.63;5111523;28;20261;-74
2022/09/03 07:13:50;;;;;;;4.20;1.93;;;;;;;19.07;72.00;97807.59;5100911;28;20620;-73
2022/09/03 07:16:19;;;;;;;2.57;1.93;;;;;;;19.17;71.74;97805.56;5108801;28;20229;-72
2022/09/03 07:18:46;;;;;;;2.70;2.10;;;;;;;19.28;71.31;97806.13;5111307;28;20296;-72
2022/09/03 07:21:15;;;;;;;3.20;1.80;;;;;;;19.38;70.99;97804.09;5102324;28;20253;-72
2022/09/03 07:23:43;;;;;;;2.47;2.27;;;;;;;19.46;70.42;97816.66;5107409;28;20281;-73
2022/09/03 07:26:12;;;;;;;2.80;2.10;;;;;;;19.58;70.12;97821.50;5109045;28;20283;-73
2022/09/03 07:28:41;;;;;;;2.30;2.10;;;;;;;19.73;69.17;97816.28;5110732;28;20256;-73
2022/09/03 07:31:11;;;;;;;2.60;2.00;;;;;;;19.89;69.27;97825.16;5109883;28;20258;-73
2022/09/03 07:33:38;;;;;;;2.27;2.07;;;;;;;19.99;68.68;97823.09;5107200;28;20301;-73
2022/09/03 07:36:07;;;;;;;2.57;2.37;;;;;;;20.03;68.29;97818.22;5105322;28;20262;-73
2022/09/03 07:38:34;;;;;;;2.50;2.30;;;;;;;20.11;67.77;97827.13;5109677;28;20253;-69
2022/09/03 07:41:01;;;;;;;2.67;2.37;;;;;;;20.16;67.02;97819.41;5106366;28;20234;-70
2022/09/03 07:43:30;;;;;;;2.37;2.17;;;;;;;20.21;66.83;97816.19;5105421;28;20282;-74
2022/09/03 07:46:00;;;;;;;2.80;2.60;;;;;;;20.25;66.94;97815.66;5108921;28;20308;-73
2022/09/03 07:48:27;;;;;;;2.33;2.13;;;;;;;20.31;66.99;97814.97;5109759;28;20237;-73
2022/09/03 07:50:59;;;;;;;2.90;2.30;;;;;;;20.38;67.24;97813.28;5108011;28;20222;-74
2022/09/03 07:53:27;;;;;;;2.33;2.10;;;;;;;20.49;66.58;97810.19;5106085;28;20246;-73
2022/09/03 07:55:55;;;;;;;2.50;2.30;;;;;;;20.57;66.17;97820.91;5110053;28;20596;-73
2022/09/03 07:58:23;;;;;;;2.70;2.50;;;;;;;20.66;66.12;97827.91;5109752;28;20243;-73
2022/09/03 08:00:50;;;;;;;2.90;2.70;;;;;;;20.77;65.36;97824.81;5104859;28;20279;-73
2022/09/03 08:03:18;;;;;;;2.57;2.37;;;;;;;20.91;65.26;97837.53;5106775;28;20561;-73
2022/09/03 08:05:44;;;;;;;3.37;2.53;;;;;;;21.06;65.19;97835.75;5110159;28;20222;-73
2022/09/03 08:08:13;;;;;;;4.07;2.70;;;;;;;21.18;64.32;97834.34;5102445;28;20219;-74
2022/09/03 08:10:41;;;;;;;3.57;2.30;;;;;;;21.23;63.34;97829.25;5097317;28;20234;-74
2022/09/03 08:13:07;;;;;;;3.60;2.43;;;;;;;21.32;62.92;97830.84;5106536;28;20279;-74
2022/09/03 08:15:35;;;;;;;2.70;2.50;;;;;;;21.47;62.82;97833.59;5110151;28;20271;-73
2022/09/03 08:18:02;;;;;;;2.63;2.43;;;;;;;21.54;61.56;97843.47;5109989;28;20233;-73
2022/09/03 08:20:31;;;;;;;4.57;2.50;;;;;;;21.58;61.78;97836.69;5107242;28;20585;-73
2022/09/03 08:23:01;;;;;;;3.37;2.80;;;;;;;21.60;61.90;97845.41;5106087;28;20585;-74
2022/09/03 08:25:29;;;;;;;3.30;2.50;;;;;;;21.55;62.38;97845.13;5093257;28;20251;-74
2022/09/03 08:27:58;;;;;;;2.90;2.70;;;;;;;21.59;62.90;97838.34;5108168;28;20611;-73
2022/09/03 08:30:26;;;;;;;2.63;2.43;;;;;;;21.86;62.64;97829.72;5105225;28;20229;-73
2022/09/03 08:32:53;;;;;;;3.20;2.90;;;;;;;22.24;60.28;97842.09;5106513;28;20313;-73
2022/09/03 08:35:20;;;;;;;6.00;3.20;;;;;;;22.67;58.12;97835.88;5109730;28;20275;-74
2022/09/03 08:37:50;;;;;;;4.77;2.87;;;;;;;22.97;56.64;97840.19;5109782;28;20268;-73
2022/09/03 08:40:17;;;;;;;3.37;3.07;;;;;;;22.98;56.73;97833.75;5097798;28;20357;-73
2022/09/03 08:42:59;;;;;;;4.27;3.00;;;;;;;22.95;57.13;97842.25;5106477;28;20234;-73
2022/09/03 08:45:29;;;;;;;3.27;2.90;;;;;;;22.84;57.25;97847.25;5109503;28;20621;-73
2022/09/03 08:48:03;;;;;;;3.77;3.23;;;;;;;22.73;58.19;97856.69;5107469;28;20221;-73
2022/09/03 08:50:36;;;;;;;3.63;3.17;;;;;;;22.48;59.23;97858.00;5105308;28;20347;-73
2022/09/03 08:53:13;;;;;;;3.40;3.20;;;;;;;22.26;60.29;97853.50;5092953;28;20242;-73
2022/09/03 08:55:47;;;;;;;3.07;2.87;;;;;;;22.40;60.66;97863.47;5106653;28;20672;-73
2022/09/03 08:58:17;;;;;;;3.50;3.20;;;;;;;22.56;59.97;97865.16;5105481;28;20292;-73
2022/09/03 09:00:50;;;;;;;5.40;3.13;;;;;;;22.31;62.47;97872.66;5108580;28;20218;-72
2022/09/03 09:03:50;;;;;;;3.50;3.20;;;;;;;21.58;66.95;97874.34;5109211;28;20222;-75
2022/09/03 09:06:24;;;;;;;5.03;3.70;;;;;;;21.20;67.49;97885.19;5068339;28;20226;-75
2022/09/03 09:09:17;;;;;;;3.70;3.40;;;;;;;21.25;66.53;97878.28;5109203;28;20579;-75
2022/09/03 09:11:56;;;;;;;3.83;3.37;;;;;;;21.50;65.51;97877.09;5105577;28;20598;-74
2022/09/03 09:14:29;;;;;;;3.70;3.40;;;;;;;21.93;63.82;97879.09;5107604;28;20283;-72
2022/09/03 09:17:07;;;;;;;3.33;3.03;;;;;;;22.29;62.25;97873.84;5109314;28;20222;-73
2022/09/03 09:19:42;;;;;;;4.33;3.47;;;;;;;22.47;61.39;97877.88;5105489;28;20282;-75
2022/09/03 09:22:13;;;;;;;3.00;2.80;;;;;;;22.56;61.20;97886.72;5096693;28;20253;-73
2022/09/03 09:24:44;;;;;;;3.27;2.97;;;;;;;22.69;59.71;97879.66;5109177;28;20278;-73
2022/09/03 09:27:16;;;;;;;4.63;3.40;;;;;;;22.75;59.99;97878.88;5107329;28;20226;-73
2022/09/03 09:29:46;;;;;;;4.60;3.20;;;;;;;22.92;59.58;97883.03;5105125;28;20616;-73
2022/09/03 09:32:16;;;;;;;5.70;3.80;;;;;;;23.08;58.80;97872.03;5108196;28;20230;-74
2022/09/03 09:34:43;;;;;;;5.27;3.67;;;;;;;23.31;58.07;97872.75;5108805;28;20627;-74
2022/09/03 09:37:12;;;;;;;4.17;3.57;;;;;;;23.38;56.45;97879.03;5106227;28;20276;-73
2022/09/03 09:39:39;;;;;;;4.03;3.63;;;;;;;23.25;56.15;97878.06;5103714;28;20329;-69
2022/09/03 09:42:11;;;;;;;4.70;3.33;;;;;;;23.29;56.54;97871.25;5105923;28;20225;-68
2022/09/03 09:44:40;;;;;;;3.40;3.10;;;;;;;23.33;56.71;97875.22;5107289;28;20226;-69
2022/09/03 09:47:10;;;;;;;4.50;3.30;;;;;;;23.24;57.04;97877.25;5102551;28;20272;-69
2022/09/03 09:49:43;;;;;;;3.40;3.10;;;;;;;23.19;56.17;97871.56;5102360;28;20576;-70
2022/09/03 09:52:12;;;;;;;4.43;3.07;;;;;;;22.97;57.47;97864.44;5089592;28;20365;-69
2022/09/03 09:54:40;;;;;;;5.20;3.20;;;;;;;22.98;57.74;97866.09;5108678;28;20222;-72
2022/09/03 09:57:17;;;;;;;3.80;2.93;;;;;;;22.94;57.07;97863.97;5106071;28;20298;-73
2022/09/03 09:59:44;;;;;;;3.10;2.90;;;;;;;22.89;58.44;97861.88;5089537;28;20256;-72
2022/09/03 10:02:14;;;;;;;3.10;2.80;;;;;;;22.72;58.67;97867.63;5109821;28;20222;-72
2022/09/03 10:04:42;;;;;;;3.20;2.90;;;;;;;22.60;59.44;97863.75;5107401;28;20537;-72
2022/09/03 10:07:25;;;;;;;3.10;2.90;;;;;;;22.73;60.14;97864.75;5106426;28;20233;-72
2022/09/03 10:10:07;;;;;;;4.10;3.10;;;;;;;22.84;59.23;97858.03;5109706;28;20253;-72
2022/09/03 10:12:40;;;;;;;4.17;3.37;;;;;;;22.75;58.23;97864.59;5107158;28;20299;-73
2022/09/03 10:15:25;;;;;;;3.23;3.00;;;;;;;22.63;58.93;97861.53;5105570;28;20234;-72
2022/09/03 10:18:05;;;;;;;3.63;3.33;;;;;;;22.54;59.85;97862.66;5108075;28;20325;-73
2022/09/03 10:20:40;;;;;;;4.90;3.07;;;;;;;22.33;61.17;97865.25;5106225;28;20646;-73
2022/09/03 10:23:16;;;;;;;4.00;3.13;;;;;;;22.33;62.05;97870.63;5108466;28;20264;-73
2022/09/03 10:25:52;;;;;;;4.97;4.47;;;;;;;22.36;61.14;97859.47;5109525;28;20225;-74
2022/09/03 10:28:23;;;;;;;4.13;3.73;;;;;;;22.40;61.48;97855.38;5106693;28;20230;-75
2022/09/03 10:31:10;;;;;;;4.00;3.20;;;;;;;22.52;59.82;97859.31;5106991;28;20314;-73
2022/09/03 10:33:42;;;;;;;4.27;2.90;;;;;;;22.66;60.03;97860.31;5109342;28;20230;-73
2022/09/03 10:36:18;;;;;;;3.40;3.03;;;;;;;22.77;57.84;97843.66;5106848;28;20226;-73
2022/09/03 10:38:49;;;;;;;3.17;2.90;;;;;;;22.77;59.18;97851.75;5107134;28;20242;-74
2022/09/03 10:41:32;;;;;;;3.97;3.30;;;;;;;22.99;57.33;97848.91;5107713;28;20222;-73
2022/09/03 10:44:17;;;;;;;5.57;3.53;;;;;;;23.02;58.79;97848.53;5107053;28;20230;-73
2022/09/03 10:46:58;;;;;;;3.00;2.70;;;;;;;23.13;58.23;97853.44;5108354;28;20272;-73
2022/09/03 10:49:37;;;;;;;3.10;2.90;;;;;;;23.28;56.93;97851.53;5109320;28;20286;-73
2022/09/03 10:52:14;;;;;;;3.30;2.70;;;;;;;23.26;56.31;97848.22;5099699;28;20327;-73
2022/09/03 10:55:01;;;;;;;3.00;2.80;;;;;;;23.20;56.80;97846.28;5108850;28;20338;-73
2022/09/03 10:57:39;;;;;;;3.17;2.87;;;;;;;23.26;57.58;97852.75;5109184;28;20275;-74
2022/09/03 11:00:11;;;;;;;3.00;2.70;;;;;;;23.23;58.58;97853.97;5100985;28;20242;-72
2022/09/03 11:03:22;;;;;;;3.57;2.77;;;;;;;23.15;58.26;97845.97;5090172;28;20222;-73
2022/09/03 11:05:58;;;;;;;3.00;2.70;;;;;;;23.29;57.47;97834.31;5046148;28;20224;-73
2022/09/03 11:08:30;;;;;;;3.00;2.60;;;;;;;23.21;58.40;97833.59;5091446;28;20221;-74
2022/09/03 11:11:07;;;;;;;2.87;2.67;;;;;;;23.37;58.02;97834.22;5112991;28;20643;-74
2022/09/03 11:13:41;;;;;;;3.03;2.83;;;;;;;23.52;57.23;97834.16;5109905;28;20265;-74
2022/09/03 11:16:14;;;;;;;2.70;2.50;;;;;;;23.60;58.06;97829.44;5110708;28;20527;-73
2022/09/03 11:18:47;;;;;;;5.13;3.20;;;;;;;23.76;56.98;97833.72;5112536;28;20538;-72
2022/09/03 11:21:16;;;;;;;5.00;3.07;;;;;;;23.85;56.13;97827.16;5103599;28;20250;-73
2022/09/03 11:23:46;;;;;;;3.00;2.80;;;;;;;23.89;55.65;97818.50;5108837;28;20579;-73
2022/09/03 11:26:16;;;;;;;3.30;3.00;;;;;;;23.80;55.73;97825.03;5092026;28;20222;-74
2022/09/03 11:28:51;;;;;;;3.10;2.90;;;;;;;23.75;55.71;97816.69;5112581;28;20222;-73
2022/09/03 11:31:32;;;;;;;3.43;3.17;;;;;;;23.86;56.98;97813.47;5109420;28;20268;-73
2022/09/03 11:34:05;;;;;;;3.07;2.73;;;;;;;24.04;56.56;97810.28;5110019;28;20298;-73
2022/09/03 11:36:34;;;;;;;2.70;2.50;;;;;;;24.19;57.32;97819.94;5112523;28;20222;-74
2022/09/03 11:39:01;;;;;;;2.80;2.60;;;;;;;24.39;57.14;97809.25;5110447;28;20245;-73
2022/09/03 11:41:34;;;;;;;3.10;2.90;;;;;;;24.53;56.67;97810.97;5108408;28;20222;-74
2022/09/03 11:44:12;;;;;;;3.07;2.83;;;;;;;24.67;55.29;97819.00;5093252;28;20228;-74
2022/09/03 11:46:52;;;;;;;3.20;2.90;;;;;;;24.77;54.45;97811.34;5112140;28;20222;-74
2022/09/03 11:49:28;;;;;;;3.13;2.80;;;;;;;24.90;54.66;97805.97;5104330;28;20226;-73
2022/09/03 11:51:59;;;;;;;3.20;3.00;;;;;;;24.96;54.35;97810.56;5093566;28;20285;-74
2022/09/03 11:54:31;;;;;;;3.10;2.90;;;;;;;24.91;53.94;97802.22;5112151;28;20226;-74